Lewistown, MT

1:46 AM MDT on August 24, 2016 (GMT -0600)
3/4 mile S of Lewistown | | Change Station

Elev 4189 ft 47.04 °N, 109.42 °W | Updated 6 seconds ago

Overcast
Overcast
51.6 °F
Feels Like 51.6 °F
N
12.0
Wind Variable Wind from SSW
Gusts 21.0 mph

Today
High -- | Low -- °F
--% Chance of Precip.
Yesterday
High -- | Low -- °F
Precip. -- in
Pressure 30.17 in
Visibility 10.0 miles
Clouds Mostly Cloudy 2000 ft
Overcast 2600 ft
Dew Point 46 °F
Humidity 80%
Rainfall 0.00 in
Snow Depth Not available.
6:27 AM 8:11 PM
Waning Gibbous, 59% visible
METAR KLWT 240654Z AUTO 28011KT 10SM BKN020 OVC026 13/07 A3024 RMK AO2 SLP216 T01280072 402220094
Pressure 30.17 in
Visibility 10.0 miles
Clouds Mostly Cloudy 2000 ft
Overcast 2600 ft
Dew Point 46 °F
Humidity 80%
Rainfall 0.00 in
Snow Depth Not available.
6:27 AM 8:11 PM
Waning Gibbous, 59% visible
METAR KLWT 240654Z AUTO 28011KT 10SM BKN020 OVC026 13/07 A3024 RMK AO2 SLP216 T01280072 402220094

10-Day Weather Forecast

Almanac

Astronomy

Aug. 24, 2016 Rise Set
Actual Time
Civil Twilight
Nautical Twilight
Astronomical Twilight
Moon
Length of Visible Light
Length of Day
Tomorrow will be .
, % of the Moon is Illuminated

Today's Extremes

State Highs State Lows

Community

WunderPhotos

Upload Photos

1,934,554 photos uploaded!

WunderBlog® & News

Nearby

Air Quality

  Air Quality AQ Index Pollutant
Not available.

Snow Depth

Station Depth Elevation

Earthquake Activity

City Distance Mag. Time & Date
Minimum magnitude displayed is 2.5.

Coastal Water Temperatures

Place Temperature

Stations

Nearby Weather Stations

Station Location Temp. Windchill Dew Point Humidity Wind Precip. Elev Updated Type
                   

Watches & Warnings

There are currently no watches in effect.